Rechercher aéroport 
image banner adimage banner adimage banner ad
image banner ad

2PS6 - Brandywine Hospital

Situé à Coatesville, United States

ICAO - 2PS6, IATA -

Données fournies par Airmate  

Information générale

Coordonnées: N40°0'37" W75°47'4"
Élévation : 565 feet MSL.
Variation magnétique : -11° East
Voir autres Aéroports à Pennsylvania

Données opérationnelles

Special qualification required
Heure actuelle UTC:
Heure actuelle locale:
Météo à : KMQS - Chester County G O Carlson ( 8 km )
METAR: KMQS 150715Z AUTO 00000KT 9SM FEW050 SCT065 17/17 A2980 RMK AO2
Voir NOTAMs / SUP AIP / TFR affectant cet aéroport [VIEW]
Fréquences de communication: [VIEW]

Pistes:

Coordonnées de l'aéroport

Adresse: Coatesville United States

Vue satellite de 2PS6